createdAt,value
2022-07-25T00:02:27.107Z,24.30
2022-07-25T00:04:55.876Z,24.30
2022-07-25T00:07:24.166Z,24.30
2022-07-25T00:09:52.336Z,24.30
2022-07-25T00:12:22.272Z,24.30
2022-07-25T00:14:50.585Z,24.30
2022-07-25T00:17:18.808Z,24.30
2022-07-25T00:19:46.964Z,24.30
2022-07-25T00:22:15.175Z,24.30
2022-07-25T00:24:43.355Z,24.20
2022-07-25T00:27:11.504Z,24.20
2022-07-25T00:29:41.105Z,24.10
2022-07-25T00:32:09.495Z,24.00
2022-07-25T00:34:38.004Z,24.00
2022-07-25T00:37:07.137Z,24.00
2022-07-25T00:39:35.815Z,24.00
2022-07-25T00:42:04.848Z,23.90
2022-07-25T00:44:34.279Z,23.90
2022-07-25T00:47:04.014Z,23.80
2022-07-25T00:49:32.445Z,23.80
2022-07-25T00:52:01.029Z,23.70
2022-07-25T00:54:30.310Z,23.70
2022-07-25T00:56:58.527Z,23.70
2022-07-25T00:59:26.753Z,23.60
2022-07-25T01:01:55.231Z,23.60
2022-07-25T01:04:25.025Z,23.60
2022-07-25T01:06:53.842Z,23.60
2022-07-25T01:09:22.114Z,23.70
2022-07-25T01:11:50.420Z,23.70
2022-07-25T01:14:18.735Z,23.60
2022-07-25T01:16:46.858Z,23.70
2022-07-25T01:19:15.186Z,23.60
2022-07-25T01:21:44.872Z,23.60
2022-07-25T01:24:13.143Z,23.60
2022-07-25T01:26:41.500Z,23.50
2022-07-25T01:29:09.762Z,23.50
2022-07-25T01:31:38.294Z,23.40
2022-07-25T01:34:07.133Z,23.30
2022-07-25T01:36:35.839Z,23.20
2022-07-25T01:39:05.843Z,23.20
2022-07-25T01:41:34.036Z,23.20
2022-07-25T01:44:02.372Z,23.20
2022-07-25T01:46:30.798Z,23.20
2022-07-25T01:48:59.174Z,23.30
2022-07-25T01:51:27.365Z,23.30
2022-07-25T01:53:55.590Z,23.30
2022-07-25T01:56:25.231Z,23.30
2022-07-25T01:58:53.429Z,23.20
2022-07-25T02:01:22.285Z,23.20
2022-07-25T02:03:51.437Z,23.20
2022-07-25T02:06:20.919Z,23.10
2022-07-25T02:08:49.144Z,23.10
2022-07-25T02:11:18.777Z,23.10
2022-07-25T02:13:48.537Z,23.10
2022-07-25T02:16:16.755Z,23.10
2022-07-25T02:18:45.838Z,23.00
2022-07-25T02:21:15.874Z,23.00
2022-07-25T02:23:44.673Z,23.00
2022-07-25T02:26:13.707Z,23.00
2022-07-25T02:28:42.459Z,22.90
2022-07-25T02:31:12.092Z,22.90
2022-07-25T02:33:40.334Z,22.90
2022-07-25T02:36:09.981Z,22.80
2022-07-25T02:38:38.387Z,22.80
2022-07-25T02:41:07.073Z,22.80
2022-07-25T02:43:35.332Z,22.80
2022-07-25T02:46:03.605Z,22.70
2022-07-25T02:48:33.674Z,22.30
2022-07-25T02:51:01.924Z,22.00
2022-07-25T02:53:54.849Z,21.50
2022-07-25T02:56:18.736Z,21.10
2022-07-25T02:58:49.548Z,21.10
2022-07-25T03:01:17.992Z,21.50
2022-07-25T03:03:47.743Z,21.50
2022-07-25T03:06:16.248Z,21.40
2022-07-25T03:08:44.431Z,21.40
2022-07-25T03:11:12.756Z,21.10
2022-07-25T03:13:41.105Z,20.70
2022-07-25T03:16:09.933Z,20.70
2022-07-25T03:18:38.065Z,20.90
2022-07-25T03:21:08.236Z,21.30
2022-07-25T03:23:36.399Z,21.30
2022-07-25T03:26:04.737Z,21.60
2022-07-25T03:28:32.886Z,21.60
2022-07-25T03:31:01.044Z,21.80
2022-07-25T03:33:29.291Z,22.00
2022-07-25T03:35:57.660Z,22.10
2022-07-25T03:38:27.191Z,22.10
2022-07-25T03:40:55.366Z,22.20
2022-07-25T03:43:23.647Z,22.20
2022-07-25T03:45:52.172Z,22.20
2022-07-25T03:48:20.368Z,22.20
2022-07-25T03:50:48.531Z,22.20
2022-07-25T03:53:16.775Z,21.60
2022-07-25T03:55:46.305Z,21.00
2022-07-25T03:58:14.613Z,21.30
2022-07-25T04:00:42.772Z,21.60
2022-07-25T04:03:11.108Z,21.60
2022-07-25T04:05:44.207Z,21.30
2022-07-25T04:08:15.248Z,21.30
2022-07-25T04:10:43.376Z,21.10
2022-07-25T04:13:12.957Z,21.20
2022-07-25T04:15:41.347Z,21.30
2022-07-25T04:18:09.453Z,21.40
2022-07-25T04:20:42.469Z,21.60
2022-07-25T04:23:10.747Z,21.60
2022-07-25T04:25:39.084Z,21.60
2022-07-25T04:28:07.608Z,21.80
2022-07-25T04:30:37.494Z,21.80
2022-07-25T04:33:05.752Z,21.90
2022-07-25T04:35:33.943Z,21.90
2022-07-25T04:38:02.107Z,22.00
2022-07-25T04:40:30.278Z,22.00
2022-07-25T04:42:58.456Z,22.10
2022-07-25T04:45:27.247Z,22.10
2022-07-25T04:47:57.125Z,22.10
2022-07-25T04:50:25.846Z,22.10
2022-07-25T04:52:54.470Z,21.90
2022-07-25T04:55:23.058Z,22.00
2022-07-25T04:57:51.332Z,22.00
2022-07-25T05:00:20.174Z,22.10
2022-07-25T05:02:48.833Z,22.10
2022-07-25T05:05:21.501Z,22.00
2022-07-25T05:07:51.104Z,21.90
2022-07-25T05:10:19.599Z,22.00
2022-07-25T05:12:47.822Z,22.10
2022-07-25T05:15:16.500Z,22.10
2022-07-25T05:17:45.255Z,22.10
2022-07-25T05:20:13.980Z,22.10
2022-07-25T05:22:43.945Z,22.10
2022-07-25T05:25:13.062Z,22.10
2022-07-25T05:27:41.599Z,22.10
2022-07-25T05:30:11.712Z,22.10
2022-07-25T05:32:41.093Z,22.10
2022-07-25T05:35:10.999Z,21.90
2022-07-25T05:37:39.380Z,22.00
2022-07-25T05:40:10.316Z,22.00
2022-07-25T05:42:38.708Z,21.90
2022-07-25T05:45:08.089Z,22.10
2022-07-25T05:47:36.563Z,22.20
2022-07-25T05:50:05.546Z,22.30
2022-07-25T05:52:33.693Z,22.30
2022-07-25T05:55:01.886Z,22.30
2022-07-25T05:57:31.555Z,22.40
2022-07-25T06:00:00.004Z,22.40
2022-07-25T06:02:28.522Z,22.40
2022-07-25T06:04:56.974Z,22.40
2022-07-25T06:07:25.412Z,22.40
2022-07-25T06:09:53.604Z,22.50
2022-07-25T06:12:21.859Z,22.60
2022-07-25T06:14:54.406Z,22.70
2022-07-25T06:17:22.539Z,22.80
2022-07-25T06:19:50.693Z,22.80
2022-07-25T06:22:19.648Z,22.80
2022-07-25T06:24:48.072Z,22.90
2022-07-25T06:27:20.536Z,23.00
2022-07-25T06:29:50.089Z,23.10
2022-07-25T06:32:19.676Z,23.10
2022-07-25T06:34:48.373Z,23.20
2022-07-25T06:37:16.856Z,23.30
2022-07-25T06:39:46.046Z,23.40
2022-07-25T06:42:14.839Z,23.50
2022-07-25T06:44:44.805Z,23.60
2022-07-25T06:47:13.701Z,23.70
2022-07-25T06:49:43.917Z,23.80
2022-07-25T06:52:12.673Z,23.90
2022-07-25T06:54:40.887Z,24.00
2022-07-25T06:57:10.506Z,24.00
2022-07-25T06:59:39.024Z,24.00
2022-07-25T07:02:07.310Z,24.20
2022-07-25T07:04:35.569Z,24.40
2022-07-25T07:07:06.288Z,24.40
2022-07-25T07:09:34.844Z,24.60
2022-07-25T07:12:03.138Z,24.70
2022-07-25T07:14:31.480Z,24.60
2022-07-25T07:16:59.978Z,24.70
2022-07-25T07:19:28.511Z,24.70
2022-07-25T07:21:56.808Z,24.70
2022-07-25T07:24:26.505Z,24.80
2022-07-25T07:26:55.075Z,24.90
2022-07-25T07:29:23.442Z,24.90
2022-07-25T07:31:51.755Z,25.00
2022-07-25T07:34:20.490Z,25.10
2022-07-25T07:36:48.869Z,25.30
2022-07-25T07:39:17.629Z,25.40
2022-07-25T07:41:47.365Z,25.50
2022-07-25T07:44:15.677Z,25.50
2022-07-25T07:46:44.257Z,25.60
2022-07-25T07:49:12.673Z,25.60
2022-07-25T07:51:41.201Z,25.70
2022-07-25T07:54:26.948Z,25.70
2022-07-25T07:56:56.684Z,25.80
2022-07-25T07:59:25.139Z,26.00
2022-07-25T08:01:53.369Z,26.20
2022-07-25T08:04:21.716Z,26.20
2022-07-25T08:06:49.922Z,26.30
2022-07-25T08:09:18.228Z,26.30
2022-07-25T08:11:46.504Z,26.40
2022-07-25T08:14:16.156Z,26.40
2022-07-25T08:16:44.568Z,26.60
2022-07-25T08:19:14.153Z,26.70
2022-07-25T08:21:42.418Z,26.80
2022-07-25T08:24:15.057Z,26.90
2022-07-25T08:26:48.269Z,27.00
2022-07-25T08:29:19.602Z,27.00
2022-07-25T08:31:49.597Z,27.10
2022-07-25T08:34:18.987Z,27.20
2022-07-25T08:36:47.245Z,27.30
2022-07-25T08:39:15.984Z,27.50
2022-07-25T08:41:44.985Z,27.60
2022-07-25T08:44:18.499Z,27.60
2022-07-25T08:46:47.598Z,27.80
2022-07-25T08:49:16.023Z,28.00
2022-07-25T08:51:44.753Z,28.10
2022-07-25T08:54:13.241Z,28.20
2022-07-25T08:56:42.508Z,28.30
2022-07-25T08:59:11.007Z,28.40
2022-07-25T09:01:42.320Z,28.50
2022-07-25T09:04:11.103Z,28.70
2022-07-25T09:06:49.916Z,28.70
2022-07-25T09:09:18.849Z,28.80
2022-07-25T09:11:47.097Z,28.90
2022-07-25T09:14:15.620Z,29.00
2022-07-25T09:16:46.855Z,29.10
2022-07-25T09:19:18.259Z,29.30
2022-07-25T09:21:59.590Z,29.50
2022-07-25T09:24:27.976Z,29.40
2022-07-25T09:26:58.128Z,29.40
2022-07-25T09:29:28.938Z,29.60
2022-07-25T09:32:00.277Z,29.70
2022-07-25T09:34:36.745Z,29.80
2022-07-25T09:37:07.760Z,29.80
2022-07-25T09:39:46.025Z,29.90
2022-07-25T09:42:24.079Z,30.00
2022-07-25T09:45:04.175Z,30.10
2022-07-25T09:47:36.074Z,30.20
2022-07-25T09:50:05.349Z,30.30
2022-07-25T09:52:33.958Z,30.40
2022-07-25T09:55:05.155Z,30.40
2022-07-25T09:57:33.445Z,30.50
2022-07-25T10:00:02.944Z,30.70
2022-07-25T10:02:49.280Z,30.80
2022-07-25T10:05:26.785Z,31.00
2022-07-25T10:07:56.417Z,31.00
2022-07-25T10:10:30.004Z,31.10
2022-07-25T10:13:10.787Z,31.20
2022-07-25T10:15:45.155Z,31.30
2022-07-25T10:18:15.882Z,31.30
2022-07-25T10:20:45.763Z,31.20
2022-07-25T10:23:22.244Z,31.30
2022-07-25T10:26:05.353Z,31.40
2022-07-25T10:28:43.914Z,31.60
2022-07-25T10:31:22.793Z,31.50
2022-07-25T10:33:56.174Z,31.70
2022-07-25T10:36:26.263Z,31.60
2022-07-25T10:38:58.859Z,31.70
2022-07-25T10:41:28.865Z,31.70
2022-07-25T10:44:01.143Z,31.80
2022-07-25T10:46:31.108Z,31.90
2022-07-25T10:49:03.418Z,31.90
2022-07-25T10:51:38.335Z,31.90
2022-07-25T10:54:17.271Z,32.10
2022-07-25T10:56:57.370Z,32.20
2022-07-25T10:59:31.465Z,32.30
2022-07-25T11:02:00.630Z,32.10
2022-07-25T11:04:30.699Z,32.00
2022-07-25T11:06:59.407Z,32.00
2022-07-25T11:09:30.002Z,31.90
2022-07-25T11:11:59.777Z,31.90
2022-07-25T11:14:33.127Z,31.90
2022-07-25T11:17:12.915Z,31.90
2022-07-25T11:19:43.913Z,31.90
2022-07-25T11:22:12.840Z,31.90
2022-07-25T11:24:43.092Z,31.80
2022-07-25T11:27:13.382Z,32.00
2022-07-25T11:29:42.317Z,32.00
2022-07-25T11:32:12.258Z,32.10
2022-07-25T11:34:44.118Z,32.30
2022-07-25T11:37:14.734Z,32.40
2022-07-25T11:39:46.080Z,32.50
2022-07-25T11:42:16.824Z,32.70
2022-07-25T11:44:48.542Z,32.70
2022-07-25T11:47:31.004Z,32.90
2022-07-25T11:50:02.498Z,32.80
2022-07-25T11:52:32.758Z,32.70
2022-07-25T11:55:02.531Z,32.90
2022-07-25T11:57:33.636Z,32.90
2022-07-25T12:00:03.137Z,32.90
2022-07-25T12:02:37.905Z,32.90
2022-07-25T12:05:10.392Z,32.90
2022-07-25T12:07:44.722Z,33.10
2022-07-25T12:10:16.637Z,33.10
2022-07-25T12:12:50.909Z,33.10
2022-07-25T12:15:22.262Z,33.20
2022-07-25T12:17:51.915Z,33.30
2022-07-25T12:20:23.620Z,33.40
2022-07-25T12:22:53.845Z,33.50
2022-07-25T12:25:25.246Z,33.30
2022-07-25T12:27:56.704Z,33.40
2022-07-25T12:30:25.028Z,33.30
2022-07-25T12:32:53.696Z,33.30
2022-07-25T12:35:23.972Z,33.30
2022-07-25T12:37:52.979Z,33.10
2022-07-25T12:40:21.777Z,32.90
2022-07-25T12:42:50.516Z,32.90
2022-07-25T12:45:19.453Z,32.80
2022-07-25T12:47:49.192Z,32.90
2022-07-25T12:50:18.563Z,33.00
2022-07-25T12:52:48.863Z,33.10
2022-07-25T12:55:18.991Z,33.20
2022-07-25T12:57:48.199Z,33.20
2022-07-25T13:00:18.763Z,33.40
2022-07-25T13:02:47.258Z,33.40
2022-07-25T13:05:15.598Z,33.40
2022-07-25T13:07:43.840Z,33.50
2022-07-25T13:10:13.666Z,33.50
2022-07-25T13:12:42.224Z,33.40
2022-07-25T13:15:11.497Z,33.30
2022-07-25T13:17:40.612Z,33.40
2022-07-25T13:20:10.771Z,33.40
2022-07-25T13:22:39.242Z,33.40
2022-07-25T13:25:08.285Z,33.20
2022-07-25T13:27:38.732Z,33.10
2022-07-25T13:30:09.281Z,33.10
2022-07-25T13:32:37.931Z,33.20
2022-07-25T13:35:07.144Z,33.20
2022-07-25T13:37:35.892Z,33.10
2022-07-25T13:40:04.829Z,33.20
2022-07-25T13:42:33.042Z,33.10
2022-07-25T13:45:02.973Z,33.10
2022-07-25T13:47:33.022Z,33.00
2022-07-25T13:50:01.242Z,32.90
2022-07-25T13:52:29.524Z,32.90
2022-07-25T13:54:58.049Z,32.80
2022-07-25T13:57:26.579Z,32.80
2022-07-25T13:59:54.936Z,32.80
2022-07-25T14:02:25.015Z,32.90
2022-07-25T14:04:54.270Z,32.60
2022-07-25T14:07:22.577Z,32.60
2022-07-25T14:09:51.120Z,32.60
2022-07-25T14:12:19.349Z,32.60
2022-07-25T14:14:47.865Z,32.60
2022-07-25T14:17:16.467Z,32.50
2022-07-25T14:19:46.552Z,32.40
2022-07-25T14:22:14.926Z,32.10
2022-07-25T14:24:43.400Z,32.00
2022-07-25T14:27:12.104Z,32.00
2022-07-25T14:29:40.790Z,31.90
2022-07-25T14:32:09.773Z,31.80
2022-07-25T14:34:40.425Z,31.80
2022-07-25T14:37:10.704Z,31.70
2022-07-25T14:39:39.713Z,31.70
2022-07-25T14:42:11.212Z,31.70
2022-07-25T14:44:40.106Z,31.70
2022-07-25T14:47:12.512Z,31.70
2022-07-25T14:49:42.053Z,31.60
2022-07-25T14:52:12.474Z,31.60
2022-07-25T14:54:41.535Z,31.60
2022-07-25T14:57:10.784Z,31.60
2022-07-25T14:59:40.321Z,31.70
2022-07-25T15:02:08.963Z,31.80
2022-07-25T15:04:37.170Z,31.80
2022-07-25T15:07:05.573Z,31.80
2022-07-25T15:09:35.083Z,31.90
2022-07-25T15:12:03.518Z,31.90
2022-07-25T15:14:32.306Z,32.00
2022-07-25T15:17:00.564Z,32.10
2022-07-25T15:19:29.095Z,32.30
2022-07-25T15:21:57.848Z,32.30
2022-07-25T15:24:29.278Z,32.50
2022-07-25T15:27:00.330Z,32.60
2022-07-25T15:29:30.486Z,32.80
2022-07-25T15:31:58.940Z,32.90
2022-07-25T15:34:27.273Z,32.80
2022-07-25T15:36:56.178Z,32.80
2022-07-25T15:39:24.586Z,32.50
2022-07-25T15:41:52.885Z,32.50
2022-07-25T15:44:22.475Z,32.30
2022-07-25T15:46:50.946Z,32.30
2022-07-25T15:49:19.403Z,32.30
2022-07-25T15:51:47.844Z,32.20
2022-07-25T15:54:16.038Z,32.10
2022-07-25T15:56:44.366Z,32.30
2022-07-25T15:59:12.556Z,32.40
2022-07-25T16:01:43.548Z,32.40
2022-07-25T16:04:12.332Z,32.50
2022-07-25T16:06:40.745Z,32.50
2022-07-25T16:09:09.352Z,32.50
2022-07-25T16:11:38.715Z,32.50
2022-07-25T16:14:06.938Z,32.40
2022-07-25T16:16:36.438Z,32.50
2022-07-25T16:19:06.405Z,32.50
2022-07-25T16:21:34.866Z,32.30
2022-07-25T16:24:03.101Z,32.20
2022-07-25T16:26:31.318Z,32.20
2022-07-25T16:28:59.600Z,32.00
2022-07-25T16:31:27.899Z,31.90
2022-07-25T16:33:56.304Z,31.90
2022-07-25T16:36:27.232Z,31.70
2022-07-25T16:38:55.616Z,31.60
2022-07-25T16:41:23.979Z,31.70
2022-07-25T16:43:52.553Z,31.60
2022-07-25T16:46:24.554Z,31.60
2022-07-25T16:48:55.216Z,31.50
2022-07-25T16:51:25.095Z,31.60
2022-07-25T16:53:53.374Z,31.50
2022-07-25T16:56:22.522Z,31.30
2022-07-25T16:58:51.240Z,31.10
2022-07-25T17:01:20.152Z,31.00
2022-07-25T17:03:48.449Z,31.00
2022-07-25T17:06:17.845Z,31.00
2022-07-25T17:08:47.801Z,31.00
2022-07-25T17:11:16.216Z,30.90
2022-07-25T17:13:44.913Z,30.90
2022-07-25T17:16:13.238Z,30.90
2022-07-25T17:18:41.554Z,30.70
2022-07-25T17:21:10.699Z,30.80
2022-07-25T17:23:38.961Z,30.60
2022-07-25T17:26:08.988Z,30.60
2022-07-25T17:28:37.412Z,30.50
2022-07-25T17:31:05.919Z,30.50
2022-07-25T17:33:34.364Z,30.40
2022-07-25T17:36:02.621Z,30.30
2022-07-25T17:38:34.886Z,30.30
2022-07-25T17:41:03.863Z,30.20
2022-07-25T17:43:33.672Z,30.10
2022-07-25T17:46:02.128Z,30.10
2022-07-25T17:48:30.416Z,29.80
2022-07-25T17:50:58.834Z,29.70
2022-07-25T17:53:27.048Z,29.60
2022-07-25T17:55:55.521Z,29.50
2022-07-25T17:58:23.871Z,29.50
2022-07-25T18:00:56.949Z,29.50
2022-07-25T18:03:29.189Z,29.40
2022-07-25T18:05:57.644Z,29.30
2022-07-25T18:08:25.916Z,29.30
2022-07-25T18:10:54.179Z,29.20
2022-07-25T18:13:22.392Z,29.20
2022-07-25T18:15:51.437Z,29.10
2022-07-25T18:18:22.161Z,29.10
2022-07-25T18:20:50.393Z,29.10
2022-07-25T18:23:18.660Z,29.10
2022-07-25T18:25:46.988Z,29.00
2022-07-25T18:28:15.369Z,28.90
2022-07-25T18:30:43.697Z,28.90
2022-07-25T18:33:12.572Z,28.90
2022-07-25T18:35:42.280Z,28.90
2022-07-25T18:38:11.573Z,28.80
2022-07-25T18:40:39.925Z,28.70
2022-07-25T18:43:09.039Z,28.70
2022-07-25T18:45:38.969Z,28.50
2022-07-25T18:48:08.531Z,28.30
2022-07-25T18:50:36.901Z,28.20
2022-07-25T18:53:06.803Z,28.20
2022-07-25T18:55:35.066Z,28.10
2022-07-25T18:58:03.360Z,28.10
2022-07-25T19:00:31.624Z,28.00
2022-07-25T19:03:00.120Z,28.00
2022-07-25T19:05:28.441Z,27.80
2022-07-25T19:07:59.699Z,27.70
2022-07-25T19:10:29.399Z,27.70
2022-07-25T19:12:58.302Z,27.60
2022-07-25T19:15:28.097Z,27.60
2022-07-25T19:17:56.515Z,27.50
2022-07-25T19:20:24.985Z,27.40
2022-07-25T19:22:53.328Z,27.40
2022-07-25T19:25:22.029Z,27.20
2022-07-25T19:27:52.688Z,27.20
2022-07-25T19:30:21.598Z,27.30
2022-07-25T19:32:50.056Z,27.00
2022-07-25T19:35:25.849Z,27.10
2022-07-25T19:37:54.749Z,27.00
2022-07-25T19:40:23.304Z,27.00
2022-07-25T19:42:53.146Z,26.90
2022-07-25T19:45:21.699Z,27.00
2022-07-25T19:47:50.289Z,27.10
2022-07-25T19:50:18.678Z,26.90
2022-07-25T19:52:47.323Z,27.00
2022-07-25T19:55:15.558Z,27.10
2022-07-25T19:57:44.073Z,27.50
2022-07-25T20:00:15.244Z,27.70
2022-07-25T20:02:43.870Z,28.00
2022-07-25T20:05:12.588Z,28.10
2022-07-25T20:07:41.401Z,28.30
2022-07-25T20:10:10.629Z,28.40
2022-07-25T20:12:39.616Z,28.40
2022-07-25T20:15:08.761Z,28.40
2022-07-25T20:17:38.490Z,28.30
2022-07-25T20:20:08.172Z,28.40
2022-07-25T20:22:37.717Z,28.40
2022-07-25T20:25:06.783Z,28.40
2022-07-25T20:27:35.331Z,28.30
2022-07-25T20:30:04.318Z,28.20
2022-07-25T20:32:32.948Z,28.20
2022-07-25T20:35:02.732Z,28.10
2022-07-25T20:37:31.004Z,28.10
2022-07-25T20:39:59.636Z,28.00
2022-07-25T20:42:27.913Z,28.00
2022-07-25T20:44:56.699Z,27.80
2022-07-25T20:47:25.107Z,27.80
2022-07-25T20:49:53.451Z,27.70
2022-07-25T20:52:23.230Z,27.70
2022-07-25T20:54:51.667Z,27.60
2022-07-25T20:57:19.953Z,27.50
2022-07-25T20:59:48.205Z,26.90
2022-07-25T21:02:17.468Z,27.10
2022-07-25T21:04:48.476Z,27.10
2022-07-25T21:07:17.172Z,27.00
2022-07-25T21:09:46.739Z,27.00
2022-07-25T21:12:14.944Z,27.00
2022-07-25T21:14:43.296Z,27.00
2022-07-25T21:17:12.239Z,26.90
2022-07-25T21:19:40.566Z,26.80
2022-07-25T21:22:08.879Z,26.80
2022-07-25T21:24:37.462Z,26.20
2022-07-25T21:27:07.124Z,25.40
2022-07-25T21:29:35.375Z,25.30
2022-07-25T21:32:04.915Z,25.20
2022-07-25T21:34:33.477Z,24.80
2022-07-25T21:37:01.697Z,24.70
2022-07-25T21:39:30.399Z,24.70
2022-07-25T21:41:58.689Z,24.50
2022-07-25T21:44:29.293Z,24.40
2022-07-25T21:46:57.552Z,24.50
2022-07-25T21:49:57.571Z,24.70
2022-07-25T21:52:30.309Z,24.90
2022-07-25T21:55:04.000Z,25.30
2022-07-25T21:57:32.490Z,25.70
2022-07-25T22:00:02.333Z,25.60
2022-07-25T22:02:30.613Z,25.80
2022-07-25T22:04:58.880Z,26.00
2022-07-25T22:07:27.240Z,25.30
2022-07-25T22:09:55.664Z,25.20
2022-07-25T22:12:23.806Z,25.30
2022-07-25T22:14:51.949Z,25.60
2022-07-25T22:17:21.540Z,25.70
2022-07-25T22:19:49.689Z,25.30
2022-07-25T22:22:18.107Z,25.40
2022-07-25T22:24:46.777Z,25.40
2022-07-25T22:27:15.457Z,25.70
2022-07-25T22:29:43.955Z,25.80
2022-07-25T22:32:12.403Z,25.90
2022-07-25T22:34:42.042Z,26.00
2022-07-25T22:37:10.337Z,26.00
2022-07-25T22:39:38.493Z,26.00
2022-07-25T22:42:07.058Z,26.00
2022-07-25T22:44:35.190Z,25.90
2022-07-25T22:47:03.355Z,25.90
2022-07-25T22:49:31.950Z,25.80
2022-07-25T22:52:01.890Z,25.80
2022-07-25T22:54:30.351Z,25.90
2022-07-25T22:56:58.656Z,25.80
2022-07-25T22:59:26.860Z,25.80
2022-07-25T23:01:55.202Z,25.90
2022-07-25T23:04:23.675Z,25.90
2022-07-25T23:06:52.259Z,25.90
2022-07-25T23:09:23.457Z,25.90
2022-07-25T23:11:51.826Z,25.90
2022-07-25T23:14:20.129Z,25.90
2022-07-25T23:17:08.898Z,25.80
2022-07-25T23:19:37.170Z,25.80
2022-07-25T23:22:05.320Z,25.70
2022-07-25T23:24:37.935Z,25.70
2022-07-25T23:27:06.585Z,25.60
2022-07-25T23:29:34.802Z,25.60
2022-07-25T23:32:03.371Z,25.00
2022-07-25T23:34:31.662Z,24.60
2022-07-25T23:36:59.847Z,24.30
2022-07-25T23:39:28.029Z,24.10
2022-07-25T23:41:57.538Z,24.20
2022-07-25T23:44:25.818Z,24.20
2022-07-25T23:46:56.593Z,24.10
2022-07-25T23:49:25.638Z,24.00
2022-07-25T23:51:54.900Z,23.90
2022-07-25T23:54:23.073Z,24.30
2022-07-25T23:56:51.612Z,23.90
2022-07-25T23:59:21.578Z,24.20
